sensor_id;sensor_type;location;lat;lon;timestamp;P1;durP1;ratioP1;P2;durP2;ratioP2
8702;SDS011;9002;42.708;23.186;2023-11-18T00:00:22;2.20;;;2.00;;
8702;SDS011;9002;42.708;23.186;2023-11-18T00:02:49;3.13;;;1.83;;
8702;SDS011;9002;42.708;23.186;2023-11-18T00:05:16;1.77;;;1.53;;
8702;SDS011;9002;42.708;23.186;2023-11-18T00:07:43;1.60;;;1.50;;
8702;SDS011;9002;42.708;23.186;2023-11-18T00:10:12;1.60;;;1.50;;
8702;SDS011;9002;42.708;23.186;2023-11-18T00:12:38;1.70;;;1.60;;
8702;SDS011;9002;42.708;23.186;2023-11-18T00:15:06;2.17;;;1.60;;
8702;SDS011;9002;42.708;23.186;2023-11-18T00:17:35;2.57;;;1.50;;
8702;SDS011;9002;42.708;23.186;2023-11-18T00:20:02;1.67;;;1.57;;
8702;SDS011;9002;42.708;23.186;2023-11-18T00:22:34;1.53;;;1.43;;
8702;SDS011;9002;42.708;23.186;2023-11-18T00:25:01;1.30;;;1.20;;
8702;SDS011;9002;42.708;23.186;2023-11-18T00:27:31;1.60;;;1.50;;
8702;SDS011;9002;42.708;23.186;2023-11-18T00:29:58;1.75;;;1.65;;
8702;SDS011;9002;42.708;23.186;2023-11-18T00:32:25;1.60;;;1.47;;
8702;SDS011;9002;42.708;23.186;2023-11-18T00:34:52;1.57;;;1.30;;
8702;SDS011;9002;42.708;23.186;2023-11-18T00:37:19;1.80;;;1.40;;
8702;SDS011;9002;42.708;23.186;2023-11-18T00:42:20;2.57;;;1.90;;
8702;SDS011;9002;42.708;23.186;2023-11-18T00:44:48;2.10;;;1.90;;
8702;SDS011;9002;42.708;23.186;2023-11-18T00:47:15;1.80;;;1.70;;
8702;SDS011;9002;42.708;23.186;2023-11-18T00:49:42;1.80;;;1.70;;
8702;SDS011;9002;42.708;23.186;2023-11-18T00:52:08;1.87;;;1.70;;
8702;SDS011;9002;42.708;23.186;2023-11-18T00:54:35;1.70;;;1.60;;
8702;SDS011;9002;42.708;23.186;2023-11-18T00:57:02;1.90;;;1.80;;
8702;SDS011;9002;42.708;23.186;2023-11-18T00:59:29;1.70;;;1.60;;
8702;SDS011;9002;42.708;23.186;2023-11-18T01:01:58;1.60;;;1.50;;
8702;SDS011;9002;42.708;23.186;2023-11-18T01:04:24;1.97;;;1.80;;
8702;SDS011;9002;42.708;23.186;2023-11-18T01:06:52;1.90;;;1.80;;
8702;SDS011;9002;42.708;23.186;2023-11-18T01:09:18;1.65;;;1.55;;
8702;SDS011;9002;42.708;23.186;2023-11-18T01:11:45;2.67;;;1.80;;
8702;SDS011;9002;42.708;23.186;2023-11-18T01:14:12;1.60;;;1.50;;
8702;SDS011;9002;42.708;23.186;2023-11-18T01:16:39;2.30;;;1.85;;
8702;SDS011;9002;42.708;23.186;2023-11-18T01:19:07;3.53;;;1.98;;
8702;SDS011;9002;42.708;23.186;2023-11-18T01:21:34;2.00;;;1.80;;
8702;SDS011;9002;42.708;23.186;2023-11-18T01:24:02;3.55;;;2.40;;
8702;SDS011;9002;42.708;23.186;2023-11-18T01:26:31;1.97;;;1.87;;
8702;SDS011;9002;42.708;23.186;2023-11-18T01:28:58;2.27;;;2.07;;
8702;SDS011;9002;42.708;23.186;2023-11-18T01:31:24;2.23;;;2.13;;
8702;SDS011;9002;42.708;23.186;2023-11-18T01:33:52;2.60;;;2.40;;
8702;SDS011;9002;42.708;23.186;2023-11-18T01:36:21;2.50;;;2.30;;
8702;SDS011;9002;42.708;23.186;2023-11-18T01:38:48;2.40;;;2.08;;
8702;SDS011;9002;42.708;23.186;2023-11-18T01:41:16;3.38;;;2.78;;
8702;SDS011;9002;42.708;23.186;2023-11-18T01:43:45;2.20;;;2.00;;
8702;SDS011;9002;42.708;23.186;2023-11-18T01:46:11;2.20;;;2.00;;
8702;SDS011;9002;42.708;23.186;2023-11-18T01:48:38;3.35;;;2.30;;
8702;SDS011;9002;42.708;23.186;2023-11-18T01:51:07;1.88;;;1.77;;
8702;SDS011;9002;42.708;23.186;2023-11-18T01:53:38;2.45;;;2.13;;
8702;SDS011;9002;42.708;23.186;2023-11-18T01:56:09;2.72;;;2.53;;
8702;SDS011;9002;42.708;23.186;2023-11-18T01:58:36;2.55;;;2.25;;
8702;SDS011;9002;42.708;23.186;2023-11-18T02:01:03;2.00;;;1.90;;
8702;SDS011;9002;42.708;23.186;2023-11-18T02:03:33;1.77;;;1.67;;
8702;SDS011;9002;42.708;23.186;2023-11-18T02:06:00;1.95;;;1.85;;
8702;SDS011;9002;42.708;23.186;2023-11-18T02:08:29;2.50;;;2.30;;
8702;SDS011;9002;42.708;23.186;2023-11-18T02:11:00;2.30;;;2.10;;
8702;SDS011;9002;42.708;23.186;2023-11-18T02:13:37;2.88;;;1.83;;
8702;SDS011;9002;42.708;23.186;2023-11-18T02:16:07;2.35;;;2.15;;
8702;SDS011;9002;42.708;23.186;2023-11-18T02:18:35;2.58;;;2.38;;
8702;SDS011;9002;42.708;23.186;2023-11-18T02:21:06;2.30;;;2.15;;
8702;SDS011;9002;42.708;23.186;2023-11-18T02:23:34;2.90;;;2.70;;
8702;SDS011;9002;42.708;23.186;2023-11-18T02:26:04;3.17;;;2.88;;
8702;SDS011;9002;42.708;23.186;2023-11-18T02:28:31;2.55;;;2.35;;
8702;SDS011;9002;42.708;23.186;2023-11-18T02:31:00;2.90;;;2.70;;
8702;SDS011;9002;42.708;23.186;2023-11-18T02:33:33;2.80;;;2.60;;
8702;SDS011;9002;42.708;23.186;2023-11-18T02:36:07;2.72;;;2.40;;
8702;SDS011;9002;42.708;23.186;2023-11-18T02:38:42;3.00;;;2.75;;
8702;SDS011;9002;42.708;23.186;2023-11-18T02:41:17;3.20;;;2.90;;
8702;SDS011;9002;42.708;23.186;2023-11-18T02:43:46;2.50;;;2.30;;
8702;SDS011;9002;42.708;23.186;2023-11-18T02:46:13;3.15;;;2.88;;
8702;SDS011;9002;42.708;23.186;2023-11-18T02:48:41;4.10;;;2.60;;
8702;SDS011;9002;42.708;23.186;2023-11-18T02:51:09;3.45;;;3.20;;
8702;SDS011;9002;42.708;23.186;2023-11-18T02:53:37;3.10;;;2.90;;
8702;SDS011;9002;42.708;23.186;2023-11-18T02:56:06;3.35;;;3.10;;
8702;SDS011;9002;42.708;23.186;2023-11-18T02:58:35;3.63;;;3.33;;
8702;SDS011;9002;42.708;23.186;2023-11-18T03:01:03;3.53;;;3.22;;
8702;SDS011;9002;42.708;23.186;2023-11-18T03:03:30;3.40;;;3.10;;
8702;SDS011;9002;42.708;23.186;2023-11-18T03:05:57;3.80;;;3.35;;
8702;SDS011;9002;42.708;23.186;2023-11-18T03:08:25;4.03;;;3.20;;
8702;SDS011;9002;42.708;23.186;2023-11-18T03:10:54;3.97;;;3.67;;
8702;SDS011;9002;42.708;23.186;2023-11-18T03:13:20;4.22;;;3.83;;
8702;SDS011;9002;42.708;23.186;2023-11-18T03:15:49;3.92;;;3.53;;
8702;SDS011;9002;42.708;23.186;2023-11-18T03:18:17;3.00;;;2.80;;
8702;SDS011;9002;42.708;23.186;2023-11-18T03:20:44;3.83;;;3.53;;
8702;SDS011;9002;42.708;23.186;2023-11-18T03:23:11;3.90;;;3.60;;
8702;SDS011;9002;42.708;23.186;2023-11-18T03:25:38;3.40;;;3.10;;
8702;SDS011;9002;42.708;23.186;2023-11-18T03:28:05;3.80;;;3.50;;
8702;SDS011;9002;42.708;23.186;2023-11-18T03:30:32;3.42;;;2.70;;
8702;SDS011;9002;42.708;23.186;2023-11-18T03:33:03;3.28;;;3.08;;
8702;SDS011;9002;42.708;23.186;2023-11-18T03:35:30;3.72;;;3.40;;
8702;SDS011;9002;42.708;23.186;2023-11-18T03:37:57;5.20;;;3.13;;
8702;SDS011;9002;42.708;23.186;2023-11-18T03:40:24;3.20;;;3.00;;
8702;SDS011;9002;42.708;23.186;2023-11-18T03:42:53;3.42;;;3.10;;
8702;SDS011;9002;42.708;23.186;2023-11-18T03:45:21;3.58;;;3.28;;
8702;SDS011;9002;42.708;23.186;2023-11-18T03:47:48;3.60;;;3.30;;
8702;SDS011;9002;42.708;23.186;2023-11-18T03:50:17;4.03;;;3.10;;
8702;SDS011;9002;42.708;23.186;2023-11-18T03:52:44;3.80;;;3.50;;
8702;SDS011;9002;42.708;23.186;2023-11-18T03:55:11;3.20;;;2.90;;
8702;SDS011;9002;42.708;23.186;2023-11-18T03:57:37;3.03;;;2.83;;
8702;SDS011;9002;42.708;23.186;2023-11-18T04:00:05;3.70;;;3.38;;
8702;SDS011;9002;42.708;23.186;2023-11-18T04:02:33;5.38;;;3.55;;
8702;SDS011;9002;42.708;23.186;2023-11-18T04:05:01;4.00;;;3.70;;
8702;SDS011;9002;42.708;23.186;2023-11-18T04:07:30;4.05;;;3.63;;
8702;SDS011;9002;42.708;23.186;2023-11-18T04:09:56;3.70;;;3.40;;
8702;SDS011;9002;42.708;23.186;2023-11-18T04:12:25;4.00;;;3.70;;
8702;SDS011;9002;42.708;23.186;2023-11-18T04:14:52;4.10;;;3.80;;
8702;SDS011;9002;42.708;23.186;2023-11-18T04:17:19;3.97;;;3.67;;
8702;SDS011;9002;42.708;23.186;2023-11-18T04:19:46;3.85;;;3.55;;
8702;SDS011;9002;42.708;23.186;2023-11-18T04:22:12;3.88;;;3.47;;
8702;SDS011;9002;42.708;23.186;2023-11-18T04:24:41;4.82;;;4.43;;
8702;SDS011;9002;42.708;23.186;2023-11-18T04:27:10;3.80;;;3.50;;
8702;SDS011;9002;42.708;23.186;2023-11-18T04:29:37;3.75;;;3.45;;
8702;SDS011;9002;42.708;23.186;2023-11-18T04:32:05;3.80;;;3.50;;
8702;SDS011;9002;42.708;23.186;2023-11-18T04:34:35;3.42;;;3.13;;
8702;SDS011;9002;42.708;23.186;2023-11-18T04:37:02;3.58;;;3.28;;
8702;SDS011;9002;42.708;23.186;2023-11-18T04:39:31;4.30;;;3.78;;
8702;SDS011;9002;42.708;23.186;2023-11-18T04:41:59;3.28;;;3.03;;
8702;SDS011;9002;42.708;23.186;2023-11-18T04:44:26;4.43;;;3.47;;
8702;SDS011;9002;42.708;23.186;2023-11-18T04:46:56;3.60;;;3.10;;
8702;SDS011;9002;42.708;23.186;2023-11-18T04:49:23;4.53;;;3.63;;
8702;SDS011;9002;42.708;23.186;2023-11-18T04:51:50;3.80;;;3.50;;
8702;SDS011;9002;42.708;23.186;2023-11-18T04:54:17;4.22;;;3.83;;
8702;SDS011;9002;42.708;23.186;2023-11-18T04:56:44;3.60;;;3.30;;
8702;SDS011;9002;42.708;23.186;2023-11-18T04:59:14;3.80;;;3.50;;
8702;SDS011;9002;42.708;23.186;2023-11-18T05:01:43;3.58;;;3.28;;
8702;SDS011;9002;42.708;23.186;2023-11-18T05:04:09;3.50;;;3.20;;
8702;SDS011;9002;42.708;23.186;2023-11-18T05:06:36;3.33;;;3.03;;
8702;SDS011;9002;42.708;23.186;2023-11-18T05:09:03;3.67;;;3.15;;
8702;SDS011;9002;42.708;23.186;2023-11-18T05:11:32;3.58;;;3.20;;
8702;SDS011;9002;42.708;23.186;2023-11-18T05:13:59;3.22;;;2.92;;
8702;SDS011;9002;42.708;23.186;2023-11-18T05:16:30;3.53;;;3.22;;
8702;SDS011;9002;42.708;23.186;2023-11-18T05:18:56;3.38;;;2.97;;
8702;SDS011;9002;42.708;23.186;2023-11-18T05:21:23;2.75;;;2.55;;
8702;SDS011;9002;42.708;23.186;2023-11-18T05:23:53;3.67;;;3.00;;
8702;SDS011;9002;42.708;23.186;2023-11-18T05:26:20;3.75;;;2.92;;
8702;SDS011;9002;42.708;23.186;2023-11-18T05:28:46;3.28;;;2.97;;
8702;SDS011;9002;42.708;23.186;2023-11-18T05:31:14;3.42;;;3.10;;
8702;SDS011;9002;42.708;23.186;2023-11-18T05:33:43;3.70;;;2.90;;
8702;SDS011;9002;42.708;23.186;2023-11-18T05:36:10;3.17;;;2.88;;
8702;SDS011;9002;42.708;23.186;2023-11-18T05:38:37;3.42;;;2.67;;
8702;SDS011;9002;42.708;23.186;2023-11-18T05:41:04;2.97;;;2.67;;
8702;SDS011;9002;42.708;23.186;2023-11-18T05:43:41;3.20;;;2.90;;
8702;SDS011;9002;42.708;23.186;2023-11-18T05:46:16;2.75;;;2.55;;
8702;SDS011;9002;42.708;23.186;2023-11-18T05:48:47;2.80;;;2.45;;
8702;SDS011;9002;42.708;23.186;2023-11-18T05:51:18;2.65;;;2.45;;
8702;SDS011;9002;42.708;23.186;2023-11-18T05:53:45;2.60;;;2.30;;
8702;SDS011;9002;42.708;23.186;2023-11-18T05:56:12;2.40;;;2.20;;
8702;SDS011;9002;42.708;23.186;2023-11-18T05:58:39;2.25;;;1.98;;
8702;SDS011;9002;42.708;23.186;2023-11-18T06:01:08;2.53;;;2.33;;
8702;SDS011;9002;42.708;23.186;2023-11-18T06:03:36;2.38;;;2.00;;
8702;SDS011;9002;42.708;23.186;2023-11-18T06:06:06;2.80;;;2.40;;
8702;SDS011;9002;42.708;23.186;2023-11-18T06:08:33;1.83;;;1.73;;
8702;SDS011;9002;42.708;23.186;2023-11-18T06:11:00;1.67;;;1.58;;
8702;SDS011;9002;42.708;23.186;2023-11-18T06:13:38;1.90;;;1.63;;
8702;SDS011;9002;42.708;23.186;2023-11-18T06:16:08;2.55;;;1.58;;
8702;SDS011;9002;42.708;23.186;2023-11-18T06:18:39;2.45;;;2.00;;
8702;SDS011;9002;42.708;23.186;2023-11-18T06:21:09;3.17;;;2.00;;
8702;SDS011;9002;42.708;23.186;2023-11-18T06:23:37;2.30;;;2.10;;
8702;SDS011;9002;42.708;23.186;2023-11-18T06:26:04;2.20;;;2.00;;
8702;SDS011;9002;42.708;23.186;2023-11-18T06:28:31;1.80;;;1.70;;
8702;SDS011;9002;42.708;23.186;2023-11-18T06:30:59;2.22;;;2.03;;
8702;SDS011;9002;42.708;23.186;2023-11-18T06:33:26;5.68;;;4.18;;
8702;SDS011;9002;42.708;23.186;2023-11-18T06:35:53;6.30;;;3.20;;
8702;SDS011;9002;42.708;23.186;2023-11-18T06:38:22;4.35;;;3.00;;
8702;SDS011;9002;42.708;23.186;2023-11-18T06:40:50;2.67;;;2.47;;
8702;SDS011;9002;42.708;23.186;2023-11-18T06:43:18;2.15;;;1.95;;
8702;SDS011;9002;42.708;23.186;2023-11-18T06:45:45;3.55;;;1.88;;
8702;SDS011;9002;42.708;23.186;2023-11-18T06:48:14;1.85;;;1.73;;
8702;SDS011;9002;42.708;23.186;2023-11-18T06:50:45;3.72;;;1.80;;
8702;SDS011;9002;42.708;23.186;2023-11-18T06:53:12;2.30;;;2.03;;
8702;SDS011;9002;42.708;23.186;2023-11-18T06:55:42;1.50;;;1.40;;
8702;SDS011;9002;42.708;23.186;2023-11-18T06:58:09;2.17;;;1.88;;
8702;SDS011;9002;42.708;23.186;2023-11-18T07:00:38;2.70;;;1.83;;
8702;SDS011;9002;42.708;23.186;2023-11-18T07:03:05;2.50;;;2.30;;
8702;SDS011;9002;42.708;23.186;2023-11-18T07:05:32;2.10;;;1.90;;
8702;SDS011;9002;42.708;23.186;2023-11-18T07:07:59;2.15;;;1.60;;
8702;SDS011;9002;42.708;23.186;2023-11-18T07:10:26;2.03;;;1.45;;
8702;SDS011;9002;42.708;23.186;2023-11-18T07:12:54;2.65;;;2.03;;
8702;SDS011;9002;42.708;23.186;2023-11-18T07:15:21;1.67;;;1.55;;
8702;SDS011;9002;42.708;23.186;2023-11-18T07:17:48;3.40;;;1.90;;
8702;SDS011;9002;42.708;23.186;2023-11-18T07:20:14;2.58;;;1.77;;
8702;SDS011;9002;42.708;23.186;2023-11-18T07:22:42;2.03;;;1.58;;
8702;SDS011;9002;42.708;23.186;2023-11-18T07:25:09;2.35;;;2.15;;
8702;SDS011;9002;42.708;23.186;2023-11-18T07:27:35;2.08;;;1.85;;
8702;SDS011;9002;42.708;23.186;2023-11-18T07:30:04;3.30;;;2.80;;
8702;SDS011;9002;42.708;23.186;2023-11-18T07:32:32;3.67;;;2.83;;
8702;SDS011;9002;42.708;23.186;2023-11-18T07:34:59;3.13;;;2.28;;
8702;SDS011;9002;42.708;23.186;2023-11-18T07:37:26;5.68;;;2.00;;
8702;SDS011;9002;42.708;23.186;2023-11-18T07:39:58;3.88;;;2.42;;
8702;SDS011;9002;42.708;23.186;2023-11-18T07:42:25;2.80;;;1.75;;
8702;SDS011;9002;42.708;23.186;2023-11-18T07:44:52;2.17;;;1.70;;
8702;SDS011;9002;42.708;23.186;2023-11-18T07:47:21;2.22;;;2.03;;
8702;SDS011;9002;42.708;23.186;2023-11-18T07:49:48;3.15;;;2.47;;
8702;SDS011;9002;42.708;23.186;2023-11-18T07:52:15;2.28;;;1.92;;
8702;SDS011;9002;42.708;23.186;2023-11-18T07:54:42;2.50;;;2.30;;
8702;SDS011;9002;42.708;23.186;2023-11-18T07:57:09;2.53;;;2.33;;
8702;SDS011;9002;42.708;23.186;2023-11-18T07:59:36;3.65;;;2.00;;
8702;SDS011;9002;42.708;23.186;2023-11-18T08:02:03;2.38;;;1.70;;
8702;SDS011;9002;42.708;23.186;2023-11-18T08:04:35;2.72;;;1.90;;
8702;SDS011;9002;42.708;23.186;2023-11-18T08:07:02;2.45;;;1.77;;
8702;SDS011;9002;42.708;23.186;2023-11-18T08:09:30;2.72;;;1.95;;
8702;SDS011;9002;42.708;23.186;2023-11-18T08:11:57;2.10;;;1.90;;
8702;SDS011;9002;42.708;23.186;2023-11-18T08:14:24;2.08;;;1.92;;
8702;SDS011;9002;42.708;23.186;2023-11-18T08:16:52;3.38;;;2.60;;
8702;SDS011;9002;42.708;23.186;2023-11-18T08:19:20;3.08;;;2.53;;
8702;SDS011;9002;42.708;23.186;2023-11-18T08:21:49;2.95;;;2.63;;
8702;SDS011;9002;42.708;23.186;2023-11-18T08:24:17;5.13;;;3.40;;
8702;SDS011;9002;42.708;23.186;2023-11-18T08:26:43;2.87;;;2.57;;
8702;SDS011;9002;42.708;23.186;2023-11-18T08:29:10;2.72;;;1.77;;
8702;SDS011;9002;42.708;23.186;2023-11-18T08:31:38;2.13;;;1.98;;
8702;SDS011;9002;42.708;23.186;2023-11-18T08:34:05;5.95;;;2.83;;
8702;SDS011;9002;42.708;23.186;2023-11-18T08:36:32;2.83;;;1.70;;
8702;SDS011;9002;42.708;23.186;2023-11-18T08:39:00;6.70;;;2.00;;
8702;SDS011;9002;42.708;23.186;2023-11-18T08:41:29;2.20;;;2.00;;
8702;SDS011;9002;42.708;23.186;2023-11-18T08:43:56;3.83;;;2.85;;
8702;SDS011;9002;42.708;23.186;2023-11-18T08:46:23;5.68;;;3.28;;
8702;SDS011;9002;42.708;23.186;2023-11-18T08:48:52;7.72;;;4.93;;
8702;SDS011;9002;42.708;23.186;2023-11-18T08:51:20;5.03;;;3.40;;
8702;SDS011;9002;42.708;23.186;2023-11-18T08:53:51;6.53;;;4.47;;
8702;SDS011;9002;42.708;23.186;2023-11-18T08:56:21;6.53;;;4.07;;
8702;SDS011;9002;42.708;23.186;2023-11-18T08:58:59;8.88;;;6.43;;
8702;SDS011;9002;42.708;23.186;2023-11-18T09:01:26;4.43;;;3.63;;
8702;SDS011;9002;42.708;23.186;2023-11-18T09:03:53;8.13;;;5.93;;
8702;SDS011;9002;42.708;23.186;2023-11-18T09:06:19;2.77;;;2.47;;
8702;SDS011;9002;42.708;23.186;2023-11-18T09:08:50;3.28;;;2.42;;
8702;SDS011;9002;42.708;23.186;2023-11-18T09:11:19;3.55;;;2.53;;
8702;SDS011;9002;42.708;23.186;2023-11-18T09:13:48;5.00;;;3.05;;
8702;SDS011;9002;42.708;23.186;2023-11-18T09:16:19;3.17;;;2.35;;
8702;SDS011;9002;42.708;23.186;2023-11-18T09:18:47;3.47;;;2.38;;
8702;SDS011;9002;42.708;23.186;2023-11-18T09:21:16;3.10;;;2.58;;
8702;SDS011;9002;42.708;23.186;2023-11-18T09:23:48;2.20;;;1.98;;
8702;SDS011;9002;42.708;23.186;2023-11-18T09:26:15;2.42;;;2.15;;
8702;SDS011;9002;42.708;23.186;2023-11-18T09:28:44;3.65;;;2.30;;
8702;SDS011;9002;42.708;23.186;2023-11-18T09:31:10;2.63;;;1.98;;
8702;SDS011;9002;42.708;23.186;2023-11-18T09:33:38;2.30;;;1.98;;
8702;SDS011;9002;42.708;23.186;2023-11-18T09:36:11;12.82;;;7.80;;
8702;SDS011;9002;42.708;23.186;2023-11-18T09:38:39;26.33;;;14.15;;
8702;SDS011;9002;42.708;23.186;2023-11-18T09:41:08;14.05;;;8.98;;
8702;SDS011;9002;42.708;23.186;2023-11-18T09:43:37;8.27;;;5.78;;
8702;SDS011;9002;42.708;23.186;2023-11-18T09:46:12;3.92;;;3.17;;
8702;SDS011;9002;42.708;23.186;2023-11-18T09:48:41;8.30;;;5.60;;
8702;SDS011;9002;42.708;23.186;2023-11-18T09:51:13;9.23;;;6.35;;
8702;SDS011;9002;42.708;23.186;2023-11-18T09:53:43;5.07;;;3.88;;
8702;SDS011;9002;42.708;23.186;2023-11-18T09:56:14;3.17;;;2.55;;
8702;SDS011;9002;42.708;23.186;2023-11-18T09:58:54;4.57;;;3.70;;
8702;SDS011;9002;42.708;23.186;2023-11-18T10:01:26;4.60;;;2.85;;
8702;SDS011;9002;42.708;23.186;2023-11-18T10:03:58;7.70;;;5.03;;
8702;SDS011;9002;42.708;23.186;2023-11-18T10:06:31;6.47;;;4.00;;
8702;SDS011;9002;42.708;23.186;2023-11-18T10:09:01;5.47;;;3.33;;
8702;SDS011;9002;42.708;23.186;2023-11-18T10:11:40;8.57;;;4.70;;
8702;SDS011;9002;42.708;23.186;2023-11-18T10:14:07;4.32;;;3.17;;
8702;SDS011;9002;42.708;23.186;2023-11-18T10:16:37;2.97;;;2.72;;
8702;SDS011;9002;42.708;23.186;2023-11-18T10:19:04;3.60;;;2.92;;
8702;SDS011;9002;42.708;23.186;2023-11-18T10:21:37;2.85;;;2.55;;
8702;SDS011;9002;42.708;23.186;2023-11-18T10:24:05;3.78;;;2.20;;
8702;SDS011;9002;42.708;23.186;2023-11-18T10:26:39;2.67;;;2.47;;
8702;SDS011;9002;42.708;23.186;2023-11-18T10:29:07;2.55;;;2.35;;
8702;SDS011;9002;42.708;23.186;2023-11-18T10:31:39;2.67;;;2.03;;
8702;SDS011;9002;42.708;23.186;2023-11-18T10:34:11;2.03;;;1.80;;
8702;SDS011;9002;42.708;23.186;2023-11-18T10:36:40;2.60;;;2.25;;
8702;SDS011;9002;42.708;23.186;2023-11-18T10:39:10;2.35;;;2.15;;
8702;SDS011;9002;42.708;23.186;2023-11-18T10:41:42;3.83;;;3.08;;
8702;SDS011;9002;42.708;23.186;2023-11-18T10:44:12;4.38;;;3.47;;
8702;SDS011;9002;42.708;23.186;2023-11-18T10:46:51;4.82;;;3.80;;
8702;SDS011;9002;42.708;23.186;2023-11-18T10:49:20;3.47;;;2.45;;
8702;SDS011;9002;42.708;23.186;2023-11-18T10:51:47;2.58;;;2.20;;
8702;SDS011;9002;42.708;23.186;2023-11-18T10:54:15;3.30;;;2.60;;
8702;SDS011;9002;42.708;23.186;2023-11-18T10:56:47;2.75;;;2.40;;
8702;SDS011;9002;42.708;23.186;2023-11-18T10:59:15;2.80;;;2.50;;
8702;SDS011;9002;42.708;23.186;2023-11-18T11:01:43;2.78;;;2.53;;
8702;SDS011;9002;42.708;23.186;2023-11-18T11:04:15;3.33;;;2.67;;
8702;SDS011;9002;42.708;23.186;2023-11-18T11:06:46;6.35;;;3.60;;
8702;SDS011;9002;42.708;23.186;2023-11-18T11:09:18;3.67;;;2.88;;
8702;SDS011;9002;42.708;23.186;2023-11-18T11:11:46;2.88;;;2.53;;
8702;SDS011;9002;42.708;23.186;2023-11-18T11:14:16;3.85;;;2.97;;
8702;SDS011;9002;42.708;23.186;2023-11-18T11:16:47;2.03;;;1.83;;
8702;SDS011;9002;42.708;23.186;2023-11-18T11:19:25;1.80;;;1.70;;
8702;SDS011;9002;42.708;23.186;2023-11-18T11:22:03;5.57;;;3.63;;
8702;SDS011;9002;42.708;23.186;2023-11-18T11:27:25;2.90;;;2.60;;
8702;SDS011;9002;42.708;23.186;2023-11-18T11:30:07;2.20;;;2.00;;
8702;SDS011;9002;42.708;23.186;2023-11-18T11:32:45;2.70;;;2.50;;
8702;SDS011;9002;42.708;23.186;2023-11-18T11:35:22;3.08;;;2.35;;
8702;SDS011;9002;42.708;23.186;2023-11-18T11:37:50;3.55;;;3.25;;
8702;SDS011;9002;42.708;23.186;2023-11-18T11:40:28;2.17;;;1.98;;
8702;SDS011;9002;42.708;23.186;2023-11-18T11:42:56;1.45;;;1.35;;
8702;SDS011;9002;42.708;23.186;2023-11-18T11:45:26;2.85;;;2.55;;
8702;SDS011;9002;42.708;23.186;2023-11-18T11:47:56;3.30;;;3.00;;
8702;SDS011;9002;42.708;23.186;2023-11-18T11:50:43;2.33;;;2.13;;
8702;SDS011;9002;42.708;23.186;2023-11-18T11:53:17;3.58;;;2.58;;
8702;SDS011;9002;42.708;23.186;2023-11-18T11:55:49;3.45;;;3.15;;
8702;SDS011;9002;42.708;23.186;2023-11-18T11:58:28;3.08;;;2.55;;
8702;SDS011;9002;42.708;23.186;2023-11-18T12:00:56;3.03;;;2.60;;
8702;SDS011;9002;42.708;23.186;2023-11-18T12:03:26;3.40;;;2.55;;
8702;SDS011;9002;42.708;23.186;2023-11-18T12:06:02;2.83;;;2.30;;
8702;SDS011;9002;42.708;23.186;2023-11-18T12:08:35;2.40;;;2.20;;
8702;SDS011;9002;42.708;23.186;2023-11-18T12:11:04;2.45;;;2.25;;
8702;SDS011;9002;42.708;23.186;2023-11-18T12:13:35;4.25;;;3.50;;
8702;SDS011;9002;42.708;23.186;2023-11-18T12:16:06;4.30;;;3.58;;
8702;SDS011;9002;42.708;23.186;2023-11-18T12:18:35;4.22;;;3.47;;
8702;SDS011;9002;42.708;23.186;2023-11-18T12:21:04;3.20;;;2.90;;
8702;SDS011;9002;42.708;23.186;2023-11-18T12:23:36;3.55;;;3.20;;
8702;SDS011;9002;42.708;23.186;2023-11-18T12:26:43;4.05;;;2.50;;
8702;SDS011;9002;42.708;23.186;2023-11-18T12:31:57;2.92;;;2.50;;
8702;SDS011;9002;42.708;23.186;2023-11-18T12:34:24;3.13;;;2.03;;
8702;SDS011;9002;42.708;23.186;2023-11-18T12:36:58;3.33;;;3.03;;
8702;SDS011;9002;42.708;23.186;2023-11-18T12:40:09;3.80;;;2.45;;
8702;SDS011;9002;42.708;23.186;2023-11-18T12:43:15;3.00;;;2.70;;
8702;SDS011;9002;42.708;23.186;2023-11-18T12:48:42;2.67;;;2.22;;
8702;SDS011;9002;42.708;23.186;2023-11-18T12:51:11;3.47;;;3.03;;
8702;SDS011;9002;42.708;23.186;2023-11-18T12:53:47;3.00;;;2.70;;
8702;SDS011;9002;42.708;23.186;2023-11-18T12:56:16;4.90;;;3.42;;
8702;SDS011;9002;42.708;23.186;2023-11-18T12:58:45;2.80;;;2.60;;
8702;SDS011;9002;42.708;23.186;2023-11-18T13:01:12;2.42;;;2.05;;
8702;SDS011;9002;42.708;23.186;2023-11-18T13:03:39;3.15;;;2.50;;
8702;SDS011;9002;42.708;23.186;2023-11-18T13:06:07;3.65;;;2.78;;
8702;SDS011;9002;42.708;23.186;2023-11-18T13:08:36;2.53;;;2.30;;
8702;SDS011;9002;42.708;23.186;2023-11-18T13:11:05;3.10;;;2.78;;
8702;SDS011;9002;42.708;23.186;2023-11-18T13:13:37;3.60;;;3.15;;
8702;SDS011;9002;42.708;23.186;2023-11-18T13:16:05;4.38;;;3.97;;
8702;SDS011;9002;42.708;23.186;2023-11-18T13:18:41;4.38;;;3.97;;
8702;SDS011;9002;42.708;23.186;2023-11-18T13:21:12;3.47;;;2.83;;
8702;SDS011;9002;42.708;23.186;2023-11-18T13:23:40;7.25;;;5.78;;
8702;SDS011;9002;42.708;23.186;2023-11-18T13:26:08;5.75;;;4.20;;
8702;SDS011;9002;42.708;23.186;2023-11-18T13:28:37;4.43;;;3.85;;
8702;SDS011;9002;42.708;23.186;2023-11-18T13:31:05;4.05;;;3.65;;
8702;SDS011;9002;42.708;23.186;2023-11-18T13:33:36;4.35;;;3.75;;
8702;SDS011;9002;42.708;23.186;2023-11-18T13:36:04;5.10;;;3.75;;
8702;SDS011;9002;42.708;23.186;2023-11-18T13:38:32;4.03;;;3.65;;
8702;SDS011;9002;42.708;23.186;2023-11-18T13:40:58;4.53;;;3.60;;
8702;SDS011;9002;42.708;23.186;2023-11-18T13:43:30;3.85;;;3.35;;
8702;SDS011;9002;42.708;23.186;2023-11-18T13:46:09;4.38;;;3.90;;
8702;SDS011;9002;42.708;23.186;2023-11-18T13:48:38;3.65;;;3.35;;
8702;SDS011;9002;42.708;23.186;2023-11-18T13:51:07;5.20;;;3.17;;
8702;SDS011;9002;42.708;23.186;2023-11-18T13:53:38;6.07;;;4.82;;
8702;SDS011;9002;42.708;23.186;2023-11-18T13:56:06;4.10;;;3.10;;
8702;SDS011;9002;42.708;23.186;2023-11-18T13:58:35;5.63;;;4.15;;
8702;SDS011;9002;42.708;23.186;2023-11-18T14:01:04;3.88;;;3.50;;
8702;SDS011;9002;42.708;23.186;2023-11-18T14:03:33;3.95;;;3.45;;
8702;SDS011;9002;42.708;23.186;2023-11-18T14:06:02;3.42;;;3.13;;
8702;SDS011;9002;42.708;23.186;2023-11-18T14:08:30;3.88;;;3.50;;
8702;SDS011;9002;42.708;23.186;2023-11-18T14:10:56;5.57;;;4.13;;
8702;SDS011;9002;42.708;23.186;2023-11-18T14:13:24;4.82;;;4.03;;
8702;SDS011;9002;42.708;23.186;2023-11-18T14:15:55;6.63;;;4.05;;
8702;SDS011;9002;42.708;23.186;2023-11-18T14:18:22;4.47;;;4.07;;
8702;SDS011;9002;42.708;23.186;2023-11-18T14:20:49;4.95;;;3.78;;
8702;SDS011;9002;42.708;23.186;2023-11-18T14:23:16;4.15;;;3.75;;
8702;SDS011;9002;42.708;23.186;2023-11-18T14:25:43;4.38;;;4.00;;
8702;SDS011;9002;42.708;23.186;2023-11-18T14:28:10;6.63;;;4.40;;
8702;SDS011;9002;42.708;23.186;2023-11-18T14:30:38;5.00;;;4.50;;
8702;SDS011;9002;42.708;23.186;2023-11-18T14:33:06;4.40;;;4.00;;
8702;SDS011;9002;42.708;23.186;2023-11-18T14:35:33;6.65;;;5.40;;
8702;SDS011;9002;42.708;23.186;2023-11-18T14:38:00;4.85;;;4.40;;
8702;SDS011;9002;42.708;23.186;2023-11-18T14:40:27;5.38;;;4.20;;
8702;SDS011;9002;42.708;23.186;2023-11-18T14:42:54;5.50;;;4.40;;
8702;SDS011;9002;42.708;23.186;2023-11-18T14:45:21;4.20;;;3.75;;
8702;SDS011;9002;42.708;23.186;2023-11-18T14:47:48;5.38;;;4.80;;
8702;SDS011;9002;42.708;23.186;2023-11-18T14:50:19;4.30;;;3.90;;
8702;SDS011;9002;42.708;23.186;2023-11-18T14:52:49;5.20;;;3.95;;
8702;SDS011;9002;42.708;23.186;2023-11-18T14:55:21;4.30;;;3.90;;
8702;SDS011;9002;42.708;23.186;2023-11-18T14:57:50;5.50;;;5.00;;
8702;SDS011;9002;42.708;23.186;2023-11-18T15:00:17;4.80;;;4.30;;
8702;SDS011;9002;42.708;23.186;2023-11-18T15:02:50;4.90;;;4.13;;
8702;SDS011;9002;42.708;23.186;2023-11-18T15:05:19;5.57;;;4.68;;
8702;SDS011;9002;42.708;23.186;2023-11-18T15:07:46;4.65;;;4.15;;
8702;SDS011;9002;42.708;23.186;2023-11-18T15:10:15;6.30;;;3.95;;
8702;SDS011;9002;42.708;23.186;2023-11-18T15:12:45;5.65;;;4.75;;
8702;SDS011;9002;42.708;23.186;2023-11-18T15:15:13;6.63;;;5.30;;
8702;SDS011;9002;42.708;23.186;2023-11-18T15:17:44;5.13;;;4.30;;
8702;SDS011;9002;42.708;23.186;2023-11-18T15:20:11;4.38;;;3.97;;
8702;SDS011;9002;42.708;23.186;2023-11-18T15:22:41;3.92;;;3.42;;